createdAt,value
2017-09-21T00:02:21.111Z,29.00
2017-09-21T00:04:47.138Z,28.00
2017-09-21T00:07:14.941Z,26.90
2017-09-21T00:09:44.710Z,29.70
2017-09-21T00:12:10.750Z,26.00
2017-09-21T00:14:36.766Z,27.30
2017-09-21T00:17:08.013Z,24.80
2017-09-21T00:19:34.054Z,25.93
2017-09-21T00:22:01.008Z,28.47
2017-09-21T00:24:38.417Z,24.87
2017-09-21T00:27:11.838Z,23.73
2017-09-21T00:29:42.298Z,26.47
2017-09-21T00:32:09.293Z,25.37
2017-09-21T00:34:35.999Z,25.67
2017-09-21T00:37:04.006Z,28.43
2017-09-21T00:39:36.262Z,27.13
2017-09-21T00:42:02.194Z,27.57
2017-09-21T00:44:33.322Z,26.40
2017-09-21T00:47:00.096Z,27.90
2017-09-21T00:49:26.853Z,25.07
2017-09-21T00:51:57.570Z,25.70
2017-09-21T00:54:25.141Z,25.10
2017-09-21T00:56:52.157Z,21.70
2017-09-21T00:59:25.748Z,22.03
2017-09-21T01:01:51.718Z,20.23
2017-09-21T01:04:21.866Z,20.37
2017-09-21T01:06:48.914Z,18.87
2017-09-21T01:09:16.984Z,17.17
2017-09-21T01:11:43.665Z,20.30
2017-09-21T01:14:16.314Z,16.90
2017-09-21T01:16:42.351Z,18.33
2017-09-21T01:19:08.378Z,18.80
2017-09-21T01:21:34.382Z,18.20
2017-09-21T01:24:02.142Z,18.50
2017-09-21T01:26:29.178Z,19.50
2017-09-21T01:28:55.185Z,18.67
2017-09-21T01:31:21.169Z,17.20
2017-09-21T01:33:54.699Z,18.80
2017-09-21T01:36:21.731Z,18.93
2017-09-21T01:38:50.518Z,21.03
2017-09-21T01:41:18.303Z,19.57
2017-09-21T01:43:44.382Z,18.80
2017-09-21T01:46:12.389Z,19.83
2017-09-21T01:48:40.362Z,19.57
2017-09-21T01:51:07.105Z,20.70
2017-09-21T01:53:37.210Z,19.17
2017-09-21T01:56:03.270Z,19.60
2017-09-21T01:58:32.068Z,19.67
2017-09-21T02:00:58.775Z,20.80
2017-09-21T02:03:24.826Z,21.67
2017-09-21T02:05:51.562Z,18.23
2017-09-21T02:08:23.946Z,20.37
2017-09-21T02:10:57.350Z,23.23
2017-09-21T02:13:24.073Z,24.80
2017-09-21T02:15:50.105Z,24.13
2017-09-21T02:18:17.062Z,22.13
2017-09-21T02:20:48.246Z,22.37
2017-09-21T02:23:21.534Z,20.73
2017-09-21T02:25:47.469Z,24.03
2017-09-21T02:28:14.493Z,20.27
2017-09-21T02:30:41.226Z,19.37
2017-09-21T02:33:10.867Z,21.07
2017-09-21T02:35:37.554Z,18.60
2017-09-21T02:38:03.552Z,18.60
2017-09-21T02:40:34.033Z,20.83
2017-09-21T02:43:00.082Z,17.97
2017-09-21T02:45:26.818Z,18.70
2017-09-21T02:47:52.853Z,17.50
2017-09-21T02:50:18.885Z,17.87
2017-09-21T02:52:53.209Z,16.70
2017-09-21T02:55:19.904Z,15.47
2017-09-21T02:57:45.906Z,13.67
2017-09-21T03:00:11.889Z,17.33
2017-09-21T03:02:37.926Z,13.23
2017-09-21T03:05:03.953Z,14.10
2017-09-21T03:07:31.958Z,14.30
2017-09-21T03:10:11.099Z,14.60
2017-09-21T03:12:43.776Z,16.87
2017-09-21T03:15:09.714Z,13.90
2017-09-21T03:17:35.707Z,16.67
2017-09-21T03:20:02.652Z,15.60
2017-09-21T03:22:28.566Z,15.53
2017-09-21T03:24:54.499Z,16.83
2017-09-21T03:27:24.646Z,18.30
2017-09-21T03:29:55.160Z,17.80
2017-09-21T03:32:22.107Z,17.20
2017-09-21T03:34:50.073Z,15.83
2017-09-21T03:37:16.143Z,15.97
2017-09-21T03:39:42.155Z,16.10
2017-09-21T03:42:08.846Z,16.70
2017-09-21T03:44:35.918Z,15.20
2017-09-21T03:47:01.885Z,16.93
2017-09-21T03:49:28.602Z,17.47
2017-09-21T03:51:54.702Z,17.00
2017-09-21T03:54:34.388Z,14.23
2017-09-21T03:57:01.355Z,14.90
2017-09-21T03:59:29.124Z,14.47
2017-09-21T04:01:56.908Z,16.07
2017-09-21T04:04:26.472Z,18.23
2017-09-21T04:06:52.506Z,16.80
2017-09-21T04:09:22.217Z,15.17
2017-09-21T04:11:48.347Z,14.53
2017-09-21T04:14:14.390Z,14.47
2017-09-21T04:16:44.522Z,15.67
2017-09-21T04:19:16.138Z,16.97
2017-09-21T04:21:49.614Z,13.90
2017-09-21T04:24:15.608Z,16.30
2017-09-21T04:26:42.389Z,14.70
2017-09-21T04:29:15.461Z,16.73
2017-09-21T04:31:45.159Z,16.67
2017-09-21T04:34:22.658Z,15.50
2017-09-21T04:36:54.528Z,18.50
2017-09-21T04:39:20.524Z,15.87
2017-09-21T04:41:46.455Z,17.67
2017-09-21T04:44:13.431Z,17.23
2017-09-21T04:46:42.197Z,17.83
2017-09-21T04:49:08.216Z,18.87
2017-09-21T04:51:38.549Z,19.20
2017-09-21T04:54:04.574Z,17.97
2017-09-21T04:56:30.606Z,22.23
2017-09-21T04:58:56.656Z,22.23
2017-09-21T05:01:28.812Z,21.27
2017-09-21T05:03:54.854Z,24.80
2017-09-21T05:06:39.017Z,25.23
2017-09-21T05:09:15.674Z,26.77
2017-09-21T05:11:43.462Z,25.30
2017-09-21T05:14:11.498Z,26.80
2017-09-21T05:16:37.593Z,26.47
2017-09-21T05:19:03.521Z,22.37
2017-09-21T05:21:36.154Z,23.87
2017-09-21T05:24:02.913Z,23.50
2017-09-21T05:26:29.966Z,25.07
2017-09-21T05:28:56.014Z,23.40
2017-09-21T05:31:23.021Z,24.40
2017-09-21T05:33:51.015Z,26.60
2017-09-21T05:36:23.274Z,24.63
2017-09-21T05:38:50.254Z,23.87
2017-09-21T05:41:17.338Z,27.97
2017-09-21T05:43:44.195Z,23.40
2017-09-21T05:46:10.965Z,22.07
2017-09-21T05:48:37.745Z,23.67
2017-09-21T05:51:06.513Z,27.97
2017-09-21T05:53:41.152Z,29.70
2017-09-21T05:56:09.937Z,30.07
2017-09-21T05:58:36.653Z,28.77
2017-09-21T06:01:02.702Z,29.33
2017-09-21T06:03:29.438Z,28.23
2017-09-21T06:05:55.469Z,25.17
2017-09-21T06:08:22.418Z,28.30
2017-09-21T06:10:48.466Z,31.20
2017-09-21T06:13:15.199Z,29.53
2017-09-21T06:15:41.238Z,30.87
2017-09-21T06:18:25.210Z,27.90
2017-09-21T06:20:52.218Z,28.77
2017-09-21T06:23:23.049Z,27.90
2017-09-21T06:25:48.982Z,27.53
2017-09-21T06:28:15.030Z,28.20
2017-09-21T06:30:42.769Z,28.30
2017-09-21T06:33:09.729Z,26.73
2017-09-21T06:35:39.322Z,30.40
2017-09-21T06:38:06.285Z,28.37
2017-09-21T06:40:32.311Z,28.43
2017-09-21T06:42:58.407Z,30.00
2017-09-21T06:45:24.424Z,31.30
2017-09-21T06:47:55.243Z,31.53
2017-09-21T06:50:25.754Z,32.47
2017-09-21T06:52:51.781Z,28.83
2017-09-21T06:55:22.945Z,30.77
2017-09-21T06:57:50.718Z,30.50
2017-09-21T07:00:17.412Z,30.77
2017-09-21T07:02:44.165Z,29.87
2017-09-21T07:05:10.128Z,30.23
2017-09-21T07:07:37.040Z,31.00
2017-09-21T07:10:03.531Z,33.20
2017-09-21T07:12:33.894Z,33.73
2017-09-21T07:15:00.325Z,31.10
2017-09-21T07:17:31.373Z,33.70
2017-09-21T07:20:10.001Z,36.87
2017-09-21T07:22:43.512Z,32.43
2017-09-21T07:25:13.061Z,35.37
2017-09-21T07:27:43.253Z,34.87
2017-09-21T07:30:11.221Z,36.63
2017-09-21T07:32:44.119Z,34.20
2017-09-21T07:35:10.904Z,34.83
2017-09-21T07:37:41.234Z,34.37
2017-09-21T07:40:07.187Z,36.50
2017-09-21T07:42:37.234Z,39.70
2017-09-21T07:45:04.206Z,37.10
2017-09-21T07:47:30.235Z,38.23
2017-09-21T07:49:56.157Z,35.70
2017-09-21T07:52:22.142Z,35.23
2017-09-21T07:54:48.092Z,36.80
2017-09-21T07:57:14.014Z,37.47
2017-09-21T07:59:39.946Z,35.73
2017-09-21T08:02:12.305Z,37.23
2017-09-21T08:04:46.049Z,39.00
2017-09-21T08:07:15.614Z,39.57
2017-09-21T08:09:41.622Z,36.57
2017-09-21T08:12:07.541Z,43.23
2017-09-21T08:14:38.135Z,42.30
2017-09-21T08:17:04.172Z,44.73
2017-09-21T08:19:30.213Z,36.43
2017-09-21T08:21:56.874Z,40.27
2017-09-21T08:24:23.574Z,38.30
2017-09-21T08:26:49.519Z,37.73
2017-09-21T08:29:15.553Z,38.60
2017-09-21T08:31:44.860Z,38.60
2017-09-21T08:34:12.933Z,40.67
2017-09-21T08:36:38.950Z,38.70
2017-09-21T08:39:04.881Z,42.67
2017-09-21T08:41:30.833Z,38.60
2017-09-21T08:43:57.506Z,40.53
2017-09-21T08:46:29.878Z,43.30
2017-09-21T08:49:01.257Z,42.73
2017-09-21T08:51:29.251Z,42.17
2017-09-21T08:53:55.282Z,44.07
2017-09-21T08:56:21.460Z,44.77
2017-09-21T08:58:48.514Z,46.40
2017-09-21T09:01:31.953Z,46.93
2017-09-21T09:04:16.707Z,41.57
2017-09-21T09:06:43.734Z,40.17
2017-09-21T09:09:13.843Z,41.87
2017-09-21T09:11:44.162Z,40.17
2017-09-21T09:14:11.131Z,41.20
2017-09-21T09:16:37.804Z,40.20
2017-09-21T09:19:03.774Z,39.20
2017-09-21T09:21:29.789Z,40.20
2017-09-21T09:23:55.710Z,40.83
2017-09-21T09:26:21.642Z,41.40
2017-09-21T09:28:47.576Z,44.17
2017-09-21T09:31:13.534Z,39.77
2017-09-21T09:33:40.276Z,42.90
2017-09-21T09:36:06.945Z,40.70
2017-09-21T09:38:32.934Z,38.10
2017-09-21T09:40:58.861Z,34.60
2017-09-21T09:43:27.878Z,36.37
2017-09-21T09:45:58.195Z,38.50
2017-09-21T09:48:24.203Z,38.97
2017-09-21T09:50:50.095Z,39.87
2017-09-21T09:53:17.029Z,38.80
2017-09-21T09:55:42.947Z,37.23
2017-09-21T09:58:09.634Z,35.10
2017-09-21T10:00:35.545Z,34.37
2017-09-21T10:03:01.539Z,36.63
2017-09-21T10:05:28.188Z,38.53
2017-09-21T10:07:54.873Z,38.73
2017-09-21T10:10:20.786Z,38.50
2017-09-21T10:12:46.702Z,41.97
2017-09-21T10:15:12.631Z,39.90
2017-09-21T10:17:38.577Z,42.23
2017-09-21T10:20:04.502Z,40.03
2017-09-21T10:22:30.474Z,39.03
2017-09-21T10:24:56.405Z,35.83
2017-09-21T10:27:22.345Z,36.27
2017-09-21T10:29:49.044Z,37.10
2017-09-21T10:32:15.733Z,36.77
2017-09-21T10:34:41.662Z,39.87
2017-09-21T10:37:10.346Z,35.80
2017-09-21T10:39:36.269Z,35.40
2017-09-21T10:42:02.204Z,36.63
2017-09-21T10:44:28.862Z,33.37
2017-09-21T10:46:55.583Z,32.97
2017-09-21T10:49:21.568Z,35.10
2017-09-21T10:51:47.545Z,33.10
2017-09-21T10:54:29.186Z,32.47
2017-09-21T10:56:57.209Z,35.07
2017-09-21T10:59:23.933Z,33.27
2017-09-21T11:01:49.858Z,34.73
2017-09-21T11:04:15.802Z,34.97
2017-09-21T11:06:41.739Z,34.67
2017-09-21T11:09:07.672Z,34.20
2017-09-21T11:11:34.344Z,31.67
2017-09-21T11:14:00.302Z,32.50
2017-09-21T11:16:26.230Z,33.30
2017-09-21T11:18:52.910Z,35.03
2017-09-21T11:21:19.570Z,33.93
2017-09-21T11:23:47.237Z,35.13
2017-09-21T11:26:13.147Z,34.97
2017-09-21T11:28:43.401Z,32.87
2017-09-21T11:31:09.326Z,31.50
2017-09-21T11:33:35.254Z,30.50
2017-09-21T11:36:01.202Z,31.23
2017-09-21T11:38:27.167Z,31.90
2017-09-21T11:40:53.862Z,30.20
2017-09-21T11:43:19.795Z,27.80
2017-09-21T11:45:45.714Z,28.30
2017-09-21T11:48:11.630Z,27.57
2017-09-21T11:50:41.970Z,26.57
2017-09-21T11:53:13.371Z,25.47
2017-09-21T11:55:41.378Z,26.13
2017-09-21T11:58:08.415Z,26.80
2017-09-21T12:00:35.109Z,29.37
2017-09-21T12:03:02.282Z,26.97
2017-09-21T12:05:32.690Z,24.50
2017-09-21T12:08:00.773Z,24.40
2017-09-21T12:10:26.805Z,25.77
2017-09-21T12:12:52.777Z,24.30
2017-09-21T12:15:23.229Z,23.60
2017-09-21T12:17:49.238Z,24.70
2017-09-21T12:20:19.037Z,23.20
2017-09-21T12:22:44.970Z,22.67
2017-09-21T12:25:10.898Z,21.33
2017-09-21T12:27:36.854Z,20.03
2017-09-21T12:30:02.781Z,18.47
2017-09-21T12:32:28.711Z,17.20
2017-09-21T12:34:54.650Z,14.97
2017-09-21T12:37:20.569Z,16.67
2017-09-21T12:39:46.500Z,16.93
2017-09-21T12:42:12.414Z,16.90
2017-09-21T12:44:39.094Z,17.33
2017-09-21T12:47:05.031Z,14.27
2017-09-21T12:49:35.499Z,15.27
2017-09-21T12:52:01.465Z,15.50
2017-09-21T12:54:28.395Z,15.20
2017-09-21T12:56:54.355Z,14.47
2017-09-21T12:59:20.283Z,13.40
2017-09-21T13:01:46.234Z,13.77
2017-09-21T13:04:12.154Z,13.33
2017-09-21T13:06:38.906Z,13.80
2017-09-21T13:09:08.315Z,10.30
2017-09-21T13:11:34.253Z,11.53
2017-09-21T13:14:00.250Z,12.50
2017-09-21T13:16:26.255Z,12.43
2017-09-21T13:18:52.251Z,11.93
2017-09-21T13:21:18.950Z,10.90
2017-09-21T13:23:44.945Z,14.07
2017-09-21T13:26:12.628Z,11.30
2017-09-21T13:28:38.554Z,11.90
2017-09-21T13:31:04.570Z,10.10
2017-09-21T13:33:30.519Z,12.00
2017-09-21T13:35:56.425Z,11.27
2017-09-21T13:38:22.438Z,10.83
2017-09-21T13:40:49.115Z,11.70
2017-09-21T13:43:15.092Z,10.17
2017-09-21T13:45:41.031Z,9.77
2017-09-21T13:48:07.749Z,9.47
2017-09-21T13:50:33.681Z,9.63
2017-09-21T13:52:59.644Z,10.50
2017-09-21T13:55:29.691Z,8.37
2017-09-21T13:57:55.617Z,10.47
2017-09-21T14:00:21.559Z,10.83
2017-09-21T14:02:48.603Z,10.13
2017-09-21T14:05:15.613Z,8.53
2017-09-21T14:07:45.449Z,7.70
2017-09-21T14:10:14.754Z,8.20
2017-09-21T14:12:44.161Z,8.60
2017-09-21T14:15:15.118Z,8.50
2017-09-21T14:17:41.114Z,8.00
2017-09-21T14:20:07.844Z,9.07
2017-09-21T14:22:35.786Z,7.10
2017-09-21T14:25:01.715Z,7.10
2017-09-21T14:27:29.638Z,7.57
2017-09-21T14:29:55.786Z,7.43
2017-09-21T14:32:21.709Z,7.00
2017-09-21T14:34:48.634Z,6.60
2017-09-21T14:37:18.580Z,7.23
2017-09-21T14:39:49.940Z,7.60
2017-09-21T14:42:16.858Z,7.30
2017-09-21T14:44:46.799Z,9.67
2017-09-21T14:47:12.782Z,7.37
2017-09-21T14:49:39.847Z,7.60
2017-09-21T14:52:09.212Z,7.93
2017-09-21T14:54:49.155Z,7.87
2017-09-21T14:57:15.257Z,7.10
2017-09-21T14:59:46.403Z,6.07
2017-09-21T15:02:19.036Z,8.33
2017-09-21T15:04:49.790Z,6.63
2017-09-21T15:07:28.245Z,6.13
2017-09-21T15:10:02.168Z,5.90
2017-09-21T15:12:32.560Z,5.90
2017-09-21T15:15:01.351Z,4.93
2017-09-21T15:17:35.298Z,6.07
2017-09-21T15:20:23.080Z,4.60
2017-09-21T15:22:54.837Z,5.30
2017-09-21T15:25:20.758Z,4.57
2017-09-21T15:27:48.783Z,5.13
2017-09-21T15:30:23.420Z,7.30
2017-09-21T15:32:52.860Z,4.30
2017-09-21T15:35:18.910Z,4.60
2017-09-21T15:37:53.239Z,4.87
2017-09-21T15:40:19.943Z,6.00
2017-09-21T15:42:45.874Z,4.07
2017-09-21T15:45:15.397Z,3.67
2017-09-21T15:47:44.898Z,3.90
2017-09-21T15:50:10.937Z,3.87
2017-09-21T15:52:36.981Z,3.90
2017-09-21T15:55:10.899Z,4.40
2017-09-21T15:57:38.661Z,4.93
2017-09-21T16:00:07.678Z,4.75
2017-09-21T16:02:33.719Z,4.30
2017-09-21T16:05:05.669Z,4.57
2017-09-21T16:07:32.682Z,4.90
2017-09-21T16:10:13.741Z,4.03
2017-09-21T16:12:41.714Z,5.03
2017-09-21T16:15:07.689Z,4.60
2017-09-21T16:17:43.372Z,5.30
2017-09-21T16:20:12.805Z,6.00
2017-09-21T16:22:50.374Z,5.00
2017-09-21T16:25:26.903Z,5.73
2017-09-21T16:27:58.237Z,4.53
2017-09-21T16:30:35.739Z,8.00
2017-09-21T16:33:04.634Z,4.90
2017-09-21T16:35:31.357Z,4.77
2017-09-21T16:37:57.302Z,4.90
2017-09-21T16:40:23.977Z,5.17
2017-09-21T16:42:49.887Z,5.13
2017-09-21T16:45:16.546Z,4.30
2017-09-21T16:47:42.483Z,3.97
2017-09-21T16:50:08.405Z,4.77
2017-09-21T16:52:34.335Z,4.67
2017-09-21T16:55:00.258Z,5.13
2017-09-21T16:57:26.175Z,4.77
2017-09-21T16:59:52.096Z,4.30
2017-09-21T17:02:18.080Z,4.03
2017-09-21T17:04:44.049Z,4.63
2017-09-21T17:07:10.700Z,4.73
2017-09-21T17:09:36.613Z,5.30
2017-09-21T17:12:03.285Z,5.00
2017-09-21T17:14:29.187Z,5.70
2017-09-21T17:16:55.865Z,5.50
2017-09-21T17:19:21.795Z,5.63
2017-09-21T17:21:47.724Z,6.67
2017-09-21T17:24:13.699Z,7.60
2017-09-21T17:26:40.374Z,6.43
2017-09-21T17:29:06.294Z,6.40
2017-09-21T17:31:32.253Z,5.83
2017-09-21T17:33:58.281Z,6.17
2017-09-21T17:36:24.225Z,6.77
2017-09-21T17:38:50.154Z,7.70
2017-09-21T17:41:17.810Z,8.07
2017-09-21T17:43:43.788Z,9.70
2017-09-21T17:46:10.459Z,9.00
2017-09-21T17:48:36.389Z,8.47
2017-09-21T17:51:02.350Z,12.87
2017-09-21T17:53:29.039Z,12.10
2017-09-21T17:55:55.736Z,9.77
2017-09-21T17:58:21.678Z,10.70
2017-09-21T18:00:47.772Z,9.77
2017-09-21T18:03:13.764Z,8.90
2017-09-21T18:05:40.430Z,10.27
2017-09-21T18:08:10.109Z,10.70
2017-09-21T18:10:36.773Z,17.93
2017-09-21T18:13:03.533Z,22.33
2017-09-21T18:15:29.458Z,11.70
2017-09-21T18:17:59.841Z,10.30
2017-09-21T18:20:25.803Z,12.10
2017-09-21T18:22:52.518Z,8.73
2017-09-21T18:25:18.599Z,10.07
2017-09-21T18:27:46.547Z,10.30
2017-09-21T18:30:13.277Z,10.47
2017-09-21T18:32:39.288Z,10.20
2017-09-21T18:35:05.233Z,9.80
2017-09-21T18:37:33.982Z,11.10
2017-09-21T18:39:59.941Z,11.40
2017-09-21T18:42:29.464Z,11.40
2017-09-21T18:44:55.527Z,12.03
2017-09-21T18:47:23.566Z,13.43
2017-09-21T18:49:50.250Z,12.60
2017-09-21T18:52:16.201Z,12.83
2017-09-21T18:54:45.322Z,13.10
2017-09-21T18:57:11.255Z,14.40
2017-09-21T18:59:37.189Z,13.20
2017-09-21T19:02:03.121Z,12.50
2017-09-21T19:04:29.818Z,11.43
2017-09-21T19:06:55.746Z,13.20
2017-09-21T19:09:21.697Z,11.33
2017-09-21T19:11:47.646Z,13.53
2017-09-21T19:14:13.582Z,13.53
2017-09-21T19:16:44.070Z,12.03
2017-09-21T19:19:10.009Z,11.23
2017-09-21T19:21:35.938Z,12.30
2017-09-21T19:24:01.854Z,11.90
2017-09-21T19:26:27.801Z,13.40
2017-09-21T19:28:59.266Z,11.60
2017-09-21T19:31:25.203Z,12.17
2017-09-21T19:33:51.885Z,12.30
2017-09-21T19:36:18.974Z,10.30
2017-09-21T19:38:44.978Z,12.53
2017-09-21T19:41:14.930Z,12.03
2017-09-21T19:43:40.871Z,11.10
2017-09-21T19:46:20.045Z,14.07
2017-09-21T19:48:46.237Z,11.33
2017-09-21T19:51:20.076Z,11.90
2017-09-21T19:53:48.174Z,14.30
2017-09-21T19:56:14.113Z,14.80
2017-09-21T19:58:40.034Z,14.07
2017-09-21T20:01:06.045Z,11.63
2017-09-21T20:03:37.542Z,11.40
2017-09-21T20:06:04.489Z,11.33
2017-09-21T20:08:30.511Z,11.20
2017-09-21T20:11:05.257Z,12.10
2017-09-21T20:13:31.218Z,12.33
2017-09-21T20:16:04.091Z,12.30
2017-09-21T20:18:30.788Z,11.70
2017-09-21T20:20:58.800Z,12.03
2017-09-21T20:23:25.480Z,11.63
2017-09-21T20:25:51.460Z,11.00
2017-09-21T20:28:19.474Z,14.03
2017-09-21T20:30:48.960Z,12.50
2017-09-21T20:33:15.686Z,13.80
2017-09-21T20:35:41.649Z,13.10
2017-09-21T20:38:09.600Z,11.60
2017-09-21T20:40:36.334Z,11.77
2017-09-21T20:43:03.285Z,12.47
2017-09-21T20:45:40.380Z,12.33
2017-09-21T20:48:07.065Z,12.87
2017-09-21T20:50:33.037Z,14.53
2017-09-21T20:53:01.002Z,13.53
2017-09-21T20:55:29.022Z,12.87
2017-09-21T20:58:00.267Z,13.87
2017-09-21T21:00:28.230Z,16.60
2017-09-21T21:02:54.981Z,15.37
2017-09-21T21:05:21.707Z,13.03
2017-09-21T21:07:48.642Z,14.03
2017-09-21T21:10:14.782Z,16.23
2017-09-21T21:12:40.833Z,12.90
2017-09-21T21:15:07.563Z,14.17
2017-09-21T21:17:33.591Z,12.30
2017-09-21T21:20:00.595Z,13.00
2017-09-21T21:22:32.226Z,13.53
2017-09-21T21:25:00.002Z,13.80
2017-09-21T21:27:27.026Z,13.40
2017-09-21T21:29:54.163Z,15.40
2017-09-21T21:32:20.198Z,14.60
2017-09-21T21:34:51.446Z,13.17
2017-09-21T21:37:17.497Z,13.00
2017-09-21T21:39:47.390Z,13.10
2017-09-21T21:42:13.527Z,13.30
2017-09-21T21:44:40.283Z,13.03
2017-09-21T21:47:10.307Z,13.70
2017-09-21T21:49:43.922Z,13.60
2017-09-21T21:52:15.365Z,13.07
2017-09-21T21:54:54.827Z,14.70
2017-09-21T21:57:21.845Z,13.30
2017-09-21T21:59:48.814Z,12.40
2017-09-21T22:02:18.051Z,13.07
2017-09-21T22:04:44.021Z,12.27
2017-09-21T22:07:10.066Z,11.37
2017-09-21T22:09:37.842Z,13.70
2017-09-21T22:12:21.705Z,13.47
2017-09-21T22:14:48.714Z,13.63
2017-09-21T22:17:18.118Z,14.20
2017-09-21T22:19:51.654Z,13.47
2017-09-21T22:22:17.577Z,13.30
2017-09-21T22:24:47.589Z,12.40
2017-09-21T22:27:18.033Z,13.20
2017-09-21T22:29:45.042Z,13.37
2017-09-21T22:32:11.061Z,12.50
2017-09-21T22:34:40.484Z,12.70
2017-09-21T22:37:06.513Z,12.60
2017-09-21T22:39:34.487Z,13.17
2017-09-21T22:42:02.482Z,15.13
2017-09-21T22:44:29.197Z,15.87
2017-09-21T22:46:57.177Z,16.23
2017-09-21T22:49:33.246Z,14.80
2017-09-21T22:51:59.981Z,13.80
2017-09-21T22:54:26.722Z,15.10
2017-09-21T22:56:52.749Z,16.57
2017-09-21T22:59:25.047Z,15.50
2017-09-21T23:01:51.792Z,15.13
2017-09-21T23:04:18.448Z,15.80
2017-09-21T23:06:45.181Z,14.27
2017-09-21T23:09:11.938Z,15.30
2017-09-21T23:11:38.653Z,14.97
2017-09-21T23:14:08.374Z,14.73
2017-09-21T23:16:40.745Z,15.10
2017-09-21T23:19:07.706Z,15.80
2017-09-21T23:21:42.025Z,14.87
2017-09-21T23:24:18.694Z,16.77
2017-09-21T23:26:46.454Z,16.07
2017-09-21T23:29:14.415Z,16.60
2017-09-21T23:31:40.336Z,15.30
2017-09-21T23:34:06.258Z,13.27
2017-09-21T23:36:33.229Z,14.00
2017-09-21T23:38:59.250Z,14.97
2017-09-21T23:41:25.273Z,14.60
2017-09-21T23:43:51.249Z,16.17
2017-09-21T23:46:17.953Z,16.07
2017-09-21T23:48:44.910Z,14.50
2017-09-21T23:51:10.849Z,14.73
2017-09-21T23:53:38.597Z,13.93
2017-09-21T23:56:09.950Z,15.70
2017-09-21T23:58:35.877Z,14.20
